createdAt,value
2022-11-16T00:01:09.306Z,23.6
2022-11-16T00:02:11.120Z,23.6
2022-11-16T00:03:13.576Z,23.6
2022-11-16T00:04:15.776Z,23.6
2022-11-16T00:05:17.431Z,23.6
2022-11-16T00:06:19.333Z,23.6
2022-11-16T00:07:22.130Z,23.6
2022-11-16T00:08:24.857Z,23.6
2022-11-16T00:09:27.254Z,23.6
2022-11-16T00:10:29.530Z,23.6
2022-11-16T00:11:31.742Z,23.6
2022-11-16T00:12:33.708Z,23.6
2022-11-16T00:13:35.907Z,23.7
2022-11-16T00:14:38.134Z,23.7
2022-11-16T00:15:40.606Z,23.7
2022-11-16T00:16:42.573Z,23.7
2022-11-16T00:17:45.052Z,23.7
2022-11-16T00:18:47.528Z,23.7
2022-11-16T00:19:49.997Z,23.7
2022-11-16T00:20:52.472Z,23.7
2022-11-16T00:21:54.960Z,23.7
2022-11-16T00:22:57.534Z,23.7
2022-11-16T00:24:00.029Z,23.7
2022-11-16T00:25:02.200Z,23.7
2022-11-16T00:26:04.676Z,23.7
2022-11-16T00:27:07.153Z,23.7
2022-11-16T00:28:09.373Z,23.7
2022-11-16T00:29:11.858Z,23.7
2022-11-16T00:30:14.132Z,23.7
2022-11-16T00:31:16.347Z,23.7
2022-11-16T00:32:18.301Z,23.7
2022-11-16T00:33:20.475Z,23.7
2022-11-16T00:34:22.684Z,23.7
2022-11-16T00:35:25.160Z,23.8
2022-11-16T00:36:27.357Z,23.8
2022-11-16T00:37:29.596Z,23.8
2022-11-16T00:38:33.623Z,23.8
2022-11-16T00:39:36.851Z,23.8
2022-11-16T00:40:39.095Z,23.8
2022-11-16T00:41:41.602Z,23.8
2022-11-16T00:42:44.107Z,23.8
2022-11-16T00:43:46.592Z,23.8
2022-11-16T00:44:49.077Z,23.8
2022-11-16T00:45:51.549Z,23.8
2022-11-16T00:46:54.031Z,23.8
2022-11-16T00:49:01.254Z,23.8
2022-11-16T00:50:03.164Z,23.8
2022-11-16T00:51:05.376Z,23.8
2022-11-16T00:52:07.566Z,23.8
2022-11-16T00:53:10.036Z,23.8
2022-11-16T00:54:12.290Z,23.8
2022-11-16T00:55:14.765Z,23.8
2022-11-16T00:56:16.683Z,23.8
2022-11-16T00:57:19.153Z,23.8
2022-11-16T00:58:21.623Z,23.8
2022-11-16T00:59:23.561Z,23.9
2022-11-16T01:00:26.030Z,23.9
2022-11-16T01:01:28.751Z,23.9
2022-11-16T01:02:31.144Z,23.9
2022-11-16T01:03:33.619Z,23.9
2022-11-16T01:04:35.574Z,23.9
2022-11-16T01:05:38.044Z,23.9
2022-11-16T01:06:40.238Z,23.9
2022-11-16T01:07:42.712Z,23.9
2022-11-16T01:08:44.894Z,23.9
2022-11-16T01:09:47.027Z,23.9
2022-11-16T01:10:49.629Z,23.9
2022-11-16T01:11:52.109Z,23.9
2022-11-16T01:12:54.285Z,23.9
2022-11-16T01:13:56.188Z,23.9
2022-11-16T01:14:58.386Z,23.9
2022-11-16T01:16:00.306Z,23.9
2022-11-16T01:17:02.495Z,23.9
2022-11-16T01:18:04.982Z,23.9
2022-11-16T01:19:07.298Z,23.9
2022-11-16T01:20:09.820Z,23.9
2022-11-16T01:21:12.293Z,23.9
2022-11-16T01:22:14.189Z,23.9
2022-11-16T01:23:16.661Z,23.9
2022-11-16T01:24:18.857Z,23.9
2022-11-16T01:25:21.096Z,23.9
2022-11-16T01:26:23.571Z,23.9
2022-11-16T01:27:25.761Z,24
2022-11-16T01:28:27.482Z,24
2022-11-16T01:29:29.691Z,24
2022-11-16T01:30:31.926Z,24
2022-11-16T01:31:34.389Z,24
2022-11-16T01:32:36.871Z,24
2022-11-16T01:33:39.060Z,24
2022-11-16T01:34:41.239Z,24
2022-11-16T01:35:43.759Z,24
2022-11-16T01:36:45.700Z,24
2022-11-16T01:37:47.905Z,24
2022-11-16T01:38:49.870Z,24
2022-11-16T01:39:52.047Z,24
2022-11-16T01:40:54.009Z,24
2022-11-16T01:41:56.480Z,24
2022-11-16T01:42:58.664Z,24.1
2022-11-16T01:44:01.143Z,24.1
2022-11-16T01:45:03.334Z,24.1
2022-11-16T01:46:05.838Z,24.1
2022-11-16T01:47:08.332Z,24.1
2022-11-16T01:48:10.653Z,24.1
2022-11-16T01:49:13.000Z,24.1
2022-11-16T01:50:14.935Z,24.1
2022-11-16T01:51:17.201Z,24.1
2022-11-16T01:52:19.381Z,24.1
2022-11-16T01:53:21.590Z,24.1
2022-11-16T01:54:23.512Z,24.1
2022-11-16T01:55:25.714Z,24.1
2022-11-16T01:56:27.688Z,24.2
2022-11-16T01:57:29.611Z,24.2
2022-11-16T01:58:32.914Z,24.2
2022-11-16T01:59:36.514Z,24.2
2022-11-16T02:00:38.712Z,24.2
2022-11-16T02:01:41.525Z,24.2
2022-11-16T02:02:44.189Z,24.2
2022-11-16T02:03:46.395Z,24.2
2022-11-16T02:04:48.878Z,24.2
2022-11-16T02:05:51.097Z,24.2
2022-11-16T02:06:53.550Z,24.2
2022-11-16T02:07:55.925Z,24.2
2022-11-16T02:08:58.396Z,24.2
2022-11-16T02:10:00.859Z,24.2
2022-11-16T02:11:03.053Z,24.2
2022-11-16T02:12:05.562Z,24.2
2022-11-16T02:13:07.488Z,24.2
2022-11-16T02:14:09.678Z,24.2
2022-11-16T02:15:12.145Z,24.2
2022-11-16T02:16:14.337Z,24.2
2022-11-16T02:17:16.549Z,24.2
2022-11-16T02:18:18.448Z,24.2
2022-11-16T02:19:21.147Z,24.2
2022-11-16T02:20:23.617Z,24.2
2022-11-16T02:21:25.807Z,24.2
2022-11-16T02:22:28.050Z,24.2
2022-11-16T02:23:30.247Z,24.2
2022-11-16T02:24:32.437Z,24.3
2022-11-16T02:25:34.911Z,24.3
2022-11-16T02:26:37.377Z,24.2
2022-11-16T02:27:39.629Z,24.3
2022-11-16T02:28:42.105Z,24.3
2022-11-16T02:29:44.303Z,24.3
2022-11-16T02:30:46.215Z,24.3
2022-11-16T02:31:48.694Z,24.3
2022-11-16T02:32:50.921Z,24.3
2022-11-16T02:33:52.845Z,24.3
2022-11-16T02:34:55.036Z,24.3
2022-11-16T02:35:57.516Z,24.3
2022-11-16T02:36:59.708Z,24.3
2022-11-16T02:38:01.946Z,24.3
2022-11-16T02:39:04.423Z,24.3
2022-11-16T02:40:06.891Z,24.3
2022-11-16T02:41:08.812Z,24.3
2022-11-16T02:42:10.737Z,24.3
2022-11-16T02:43:12.980Z,24.3
2022-11-16T02:44:14.611Z,24.3
2022-11-16T02:45:17.099Z,24.3
2022-11-16T02:46:19.004Z,24.3
2022-11-16T02:47:21.204Z,24.3
2022-11-16T02:48:23.704Z,24.3
2022-11-16T02:49:25.908Z,24.3
2022-11-16T02:50:28.118Z,24.3
2022-11-16T02:51:30.601Z,24.3
2022-11-16T02:52:32.793Z,24.3
2022-11-16T02:53:35.319Z,24.3
2022-11-16T02:54:36.956Z,24.3
2022-11-16T02:55:38.889Z,24.3
2022-11-16T02:56:41.083Z,24.3
2022-11-16T02:57:43.575Z,24.3
2022-11-16T02:58:46.073Z,24.3
2022-11-16T02:59:48.547Z,24.3
2022-11-16T03:00:51.164Z,24.3
2022-11-16T03:01:53.581Z,24.3
2022-11-16T03:02:55.781Z,24.3
2022-11-16T03:03:58.283Z,24.3
2022-11-16T03:05:00.479Z,24.3
2022-11-16T03:06:02.686Z,24.3
2022-11-16T03:07:04.821Z,24.3
2022-11-16T03:08:07.396Z,24.3
2022-11-16T03:09:09.687Z,24.3
2022-11-16T03:10:11.622Z,24.3
2022-11-16T03:11:13.817Z,24.3
2022-11-16T03:12:16.287Z,24.3
2022-11-16T03:13:18.779Z,24.3
2022-11-16T03:14:21.024Z,24.3
2022-11-16T03:15:22.956Z,24.3
2022-11-16T03:16:25.429Z,24.3
2022-11-16T03:17:27.616Z,24.3
2022-11-16T03:18:29.536Z,24.3
2022-11-16T03:19:32.504Z,24.3
2022-11-16T03:20:35.023Z,24.4
2022-11-16T03:21:37.504Z,24.3
2022-11-16T03:22:39.723Z,24.4
2022-11-16T03:23:42.186Z,24.3
2022-11-16T03:24:44.703Z,24.4
2022-11-16T03:25:46.601Z,24.4
2022-11-16T03:26:48.499Z,24.4
2022-11-16T03:27:50.710Z,24.4
2022-11-16T03:28:52.919Z,24.4
2022-11-16T03:29:55.455Z,24.4
2022-11-16T03:30:57.967Z,24.4
2022-11-16T03:32:00.143Z,24.4
2022-11-16T03:33:02.067Z,24.4
2022-11-16T03:34:04.254Z,24.4
2022-11-16T03:35:06.477Z,24.4
2022-11-16T03:36:08.948Z,24.4
2022-11-16T03:37:11.427Z,24.4
2022-11-16T03:38:13.625Z,24.4
2022-11-16T03:39:16.125Z,24.4
2022-11-16T03:40:18.377Z,24.4
2022-11-16T03:41:20.580Z,24.4
2022-11-16T03:42:23.060Z,24.4
2022-11-16T03:43:25.544Z,24.4
2022-11-16T03:44:28.026Z,24.4
2022-11-16T03:45:30.539Z,24.4
2022-11-16T03:46:32.206Z,24.4
2022-11-16T03:47:34.406Z,24.4
2022-11-16T03:48:37.609Z,24.4
2022-11-16T03:49:39.808Z,24.4
2022-11-16T03:50:41.766Z,24.4
2022-11-16T03:51:44.241Z,24.4
2022-11-16T03:52:46.717Z,24.4
2022-11-16T03:53:48.641Z,24.4
2022-11-16T03:54:51.135Z,24.4
2022-11-16T03:55:53.407Z,24.4
2022-11-16T03:56:55.601Z,24.4
2022-11-16T03:57:57.793Z,24.4
2022-11-16T03:58:59.996Z,24.4
2022-11-16T04:00:02.521Z,24.4
2022-11-16T04:01:05.275Z,24.4
2022-11-16T04:02:08.063Z,24.4
2022-11-16T04:03:10.457Z,24.4
2022-11-16T04:04:12.979Z,24.3
2022-11-16T04:05:14.603Z,24.3
2022-11-16T04:06:17.178Z,24.3
2022-11-16T04:07:19.723Z,24.3
2022-11-16T04:08:22.538Z,24.3
2022-11-16T04:09:25.261Z,24.3
2022-11-16T04:10:27.776Z,24.2
2022-11-16T04:11:30.338Z,24.2
2022-11-16T04:12:32.829Z,24.2
2022-11-16T04:13:35.324Z,24.2
2022-11-16T04:14:37.241Z,24.2
2022-11-16T04:15:39.444Z,24.1
2022-11-16T04:16:41.967Z,24.1
2022-11-16T04:17:44.464Z,24.1
2022-11-16T04:18:46.397Z,24.1
2022-11-16T04:19:48.569Z,24.1
2022-11-16T04:20:55.029Z,24.1
2022-11-16T04:21:57.509Z,24.1
2022-11-16T04:22:59.718Z,24.1
2022-11-16T04:24:02.244Z,24
2022-11-16T04:25:04.724Z,24
2022-11-16T04:26:06.931Z,24
2022-11-16T04:27:09.480Z,24
2022-11-16T04:28:11.678Z,24
2022-11-16T04:29:14.151Z,24
2022-11-16T04:30:16.651Z,24
2022-11-16T04:31:18.905Z,24
2022-11-16T04:32:21.150Z,24
2022-11-16T04:33:23.641Z,24
2022-11-16T04:34:25.557Z,24
2022-11-16T04:35:28.046Z,24
2022-11-16T04:36:29.964Z,23.9
2022-11-16T04:37:32.218Z,23.9
2022-11-16T04:38:35.882Z,23.9
2022-11-16T04:39:38.720Z,23.9
2022-11-16T04:40:40.894Z,23.9
2022-11-16T04:41:43.576Z,23.9
2022-11-16T04:42:46.117Z,23.9
2022-11-16T04:43:48.589Z,23.9
2022-11-16T04:44:51.146Z,23.9
2022-11-16T04:45:53.907Z,23.9
2022-11-16T04:46:56.408Z,23.9
2022-11-16T04:47:58.921Z,23.9
2022-11-16T04:49:00.770Z,23.9
2022-11-16T04:50:03.291Z,23.9
2022-11-16T04:51:05.498Z,23.9
2022-11-16T04:52:07.686Z,23.9
2022-11-16T04:53:10.175Z,23.9
2022-11-16T04:54:12.392Z,23.9
2022-11-16T04:55:14.584Z,23.9
2022-11-16T04:56:16.788Z,23.9
2022-11-16T04:57:18.421Z,23.8
2022-11-16T04:58:20.371Z,23.8
2022-11-16T04:59:22.572Z,23.8
2022-11-16T05:00:25.090Z,23.8
2022-11-16T05:01:27.738Z,23.8
2022-11-16T05:02:30.195Z,23.8
2022-11-16T05:03:32.162Z,23.8
2022-11-16T05:04:34.637Z,23.8
2022-11-16T05:05:37.093Z,23.8
2022-11-16T05:06:39.297Z,23.8
2022-11-16T05:07:40.941Z,23.8
2022-11-16T05:08:43.442Z,23.8
2022-11-16T05:09:45.615Z,23.8
2022-11-16T05:10:47.818Z,23.8
2022-11-16T05:11:50.010Z,23.8
2022-11-16T05:12:52.494Z,23.8
2022-11-16T05:13:55.005Z,23.8
2022-11-16T05:14:56.933Z,23.8
2022-11-16T05:15:58.907Z,23.8
2022-11-16T05:17:01.376Z,23.8
2022-11-16T05:18:03.850Z,23.8
2022-11-16T05:19:06.101Z,23.8
2022-11-16T05:20:08.566Z,23.8
2022-11-16T05:21:10.466Z,23.8
2022-11-16T05:22:12.656Z,23.8
2022-11-16T05:23:14.852Z,23.8
2022-11-16T05:24:16.773Z,23.8
2022-11-16T05:25:18.438Z,23.8
2022-11-16T05:26:20.925Z,23.8
2022-11-16T05:27:22.865Z,23.8
2022-11-16T05:28:24.774Z,23.8
2022-11-16T05:29:27.298Z,23.8
2022-11-16T05:30:29.813Z,23.8
2022-11-16T05:32:37.002Z,23.8
2022-11-16T05:33:38.918Z,23.8
2022-11-16T05:34:41.443Z,23.8
2022-11-16T05:35:43.641Z,23.8
2022-11-16T05:36:46.123Z,23.8
2022-11-16T05:37:48.587Z,23.8
2022-11-16T05:39:56.065Z,23.8
2022-11-16T05:40:58.666Z,23.8
2022-11-16T05:42:00.864Z,23.8
2022-11-16T05:43:03.349Z,23.8
2022-11-16T05:44:05.264Z,23.8
2022-11-16T05:45:07.516Z,23.8
2022-11-16T05:46:09.985Z,23.8
2022-11-16T05:47:12.180Z,23.8
2022-11-16T05:48:14.393Z,23.8
2022-11-16T05:49:16.591Z,23.8
2022-11-16T05:50:19.118Z,23.8
2022-11-16T05:51:21.680Z,23.8
2022-11-16T05:52:24.161Z,23.8
2022-11-16T05:53:26.643Z,23.8
2022-11-16T05:54:29.126Z,23.8
2022-11-16T05:55:31.617Z,23.8
2022-11-16T05:56:34.347Z,23.8
2022-11-16T05:57:36.741Z,23.7
2022-11-16T05:58:39.226Z,23.7
2022-11-16T05:59:41.425Z,23.7
2022-11-16T06:00:43.949Z,23.7
2022-11-16T06:01:46.428Z,23.7
2022-11-16T06:02:49.066Z,23.7
2022-11-16T06:03:51.386Z,23.7
2022-11-16T06:04:53.589Z,23.7
2022-11-16T06:05:56.102Z,23.7
2022-11-16T06:06:58.750Z,23.7
2022-11-16T06:08:00.840Z,23.7
2022-11-16T06:09:03.331Z,23.7
2022-11-16T06:10:05.635Z,23.7
2022-11-16T06:11:08.108Z,23.7
2022-11-16T06:12:10.054Z,23.7
2022-11-16T06:13:12.522Z,23.7
2022-11-16T06:14:14.725Z,23.7
2022-11-16T06:15:17.206Z,23.7
2022-11-16T06:16:20.588Z,23.7
2022-11-16T06:17:23.706Z,23.7
2022-11-16T06:18:26.205Z,23.7
2022-11-16T06:20:33.752Z,23.7
2022-11-16T06:21:35.709Z,23.7
2022-11-16T06:22:37.628Z,23.7
2022-11-16T06:23:39.548Z,23.7
2022-11-16T06:24:42.017Z,23.7
2022-11-16T06:25:44.480Z,23.7
2022-11-16T06:26:46.661Z,23.7
2022-11-16T06:27:49.148Z,23.7
2022-11-16T06:28:51.617Z,23.7
2022-11-16T06:29:53.813Z,23.7
2022-11-16T06:30:56.039Z,23.7
2022-11-16T06:31:59.381Z,23.7
2022-11-16T06:33:02.022Z,23.7
2022-11-16T06:34:04.501Z,23.7
2022-11-16T06:35:06.981Z,23.7
2022-11-16T06:36:09.197Z,23.7
2022-11-16T06:37:11.674Z,23.7
2022-11-16T06:38:13.870Z,23.7
2022-11-16T06:39:16.352Z,23.7
2022-11-16T06:40:18.278Z,23.7
2022-11-16T06:41:20.764Z,23.7
2022-11-16T06:42:22.941Z,23.7
2022-11-16T06:43:25.459Z,23.7
2022-11-16T06:44:27.654Z,23.7
2022-11-16T06:45:30.129Z,23.7
2022-11-16T06:46:32.599Z,23.7
2022-11-16T06:47:35.403Z,23.7
2022-11-16T06:48:38.691Z,23.7
2022-11-16T06:49:40.604Z,23.7
2022-11-16T06:50:43.085Z,23.7
2022-11-16T06:51:45.566Z,23.7
2022-11-16T06:52:47.758Z,23.7
2022-11-16T06:53:50.241Z,23.7
2022-11-16T06:54:52.712Z,23.7
2022-11-16T06:55:54.920Z,23.7
2022-11-16T06:56:57.400Z,23.7
2022-11-16T06:57:59.881Z,23.7
2022-11-16T06:59:02.071Z,23.7
2022-11-16T07:00:04.552Z,23.7
2022-11-16T07:01:06.449Z,23.7
2022-11-16T07:02:09.133Z,23.7
2022-11-16T07:03:12.032Z,23.7
2022-11-16T07:04:14.362Z,23.7
2022-11-16T07:05:16.558Z,23.7
2022-11-16T07:06:18.781Z,23.7
2022-11-16T07:07:21.675Z,23.7
2022-11-16T07:08:24.403Z,23.7
2022-11-16T07:09:26.869Z,23.7
2022-11-16T07:10:29.083Z,23.7
2022-11-16T07:11:31.355Z,23.7
2022-11-16T07:12:33.531Z,23.7
2022-11-16T07:13:35.788Z,23.7
2022-11-16T07:14:38.317Z,23.7
2022-11-16T07:15:40.824Z,23.7
2022-11-16T07:16:43.305Z,23.7
2022-11-16T07:17:45.784Z,23.7
2022-11-16T07:18:49.018Z,23.7
2022-11-16T07:19:51.633Z,23.7
2022-11-16T07:20:54.118Z,23.7
2022-11-16T07:21:56.594Z,23.7
2022-11-16T07:22:59.083Z,23.7
2022-11-16T07:24:01.274Z,23.6
2022-11-16T07:25:03.742Z,23.6
2022-11-16T07:26:06.242Z,23.7
2022-11-16T07:27:08.554Z,23.6
2022-11-16T07:28:11.078Z,23.7
2022-11-16T07:29:13.577Z,23.6
2022-11-16T07:30:15.809Z,23.6
2022-11-16T07:31:18.028Z,23.7
2022-11-16T07:32:20.529Z,23.6
2022-11-16T07:33:22.224Z,23.6
2022-11-16T07:34:25.351Z,23.6
2022-11-16T07:35:27.865Z,23.6
2022-11-16T07:36:30.358Z,23.6
2022-11-16T07:37:32.285Z,23.6
2022-11-16T07:38:35.703Z,23.6
2022-11-16T07:39:38.625Z,23.6
2022-11-16T07:40:41.115Z,23.6
2022-11-16T07:41:43.584Z,23.6
2022-11-16T07:42:45.843Z,23.6
2022-11-16T07:44:53.083Z,23.6
2022-11-16T07:47:00.006Z,23.6
2022-11-16T07:48:02.475Z,23.6
2022-11-16T07:50:09.554Z,23.6
2022-11-16T07:51:12.354Z,23.6
2022-11-16T07:52:14.279Z,23.6
2022-11-16T07:53:16.749Z,23.6
2022-11-16T07:54:19.267Z,23.6
2022-11-16T07:55:21.746Z,23.6
2022-11-16T07:56:24.229Z,23.6
2022-11-16T07:57:26.707Z,23.6
2022-11-16T07:58:29.191Z,23.6
2022-11-16T07:59:31.759Z,23.6
2022-11-16T08:00:34.233Z,23.6
2022-11-16T08:01:36.610Z,23.6
2022-11-16T08:02:38.472Z,23.6
2022-11-16T08:03:40.964Z,23.6
2022-11-16T08:04:43.459Z,23.6
2022-11-16T08:05:46.199Z,23.6
2022-11-16T08:06:48.987Z,23.6
2022-11-16T08:07:51.694Z,23.7
2022-11-16T08:09:59.292Z,23.6
2022-11-16T08:11:01.666Z,23.7
2022-11-16T08:12:04.267Z,23.7
2022-11-16T08:13:06.748Z,23.7
2022-11-16T08:14:09.225Z,23.7
2022-11-16T08:15:11.697Z,23.7
2022-11-16T08:16:13.656Z,23.7
2022-11-16T08:17:16.217Z,23.7
2022-11-16T08:18:18.425Z,23.7
2022-11-16T08:19:20.903Z,23.7
2022-11-16T08:20:23.395Z,23.7
2022-11-16T08:21:25.943Z,23.7
2022-11-16T08:22:28.676Z,23.7
2022-11-16T08:23:30.612Z,23.7
2022-11-16T08:24:33.116Z,23.7
2022-11-16T08:25:35.594Z,23.7
2022-11-16T08:26:37.781Z,23.7
2022-11-16T08:27:39.700Z,23.7
2022-11-16T08:28:42.187Z,23.7
2022-11-16T08:29:44.430Z,23.7
2022-11-16T08:31:51.957Z,23.7
2022-11-16T08:32:54.475Z,23.7
2022-11-16T08:33:56.815Z,23.7
2022-11-16T08:34:59.377Z,23.6
2022-11-16T08:36:01.593Z,23.7
2022-11-16T08:37:04.250Z,23.7
2022-11-16T08:38:06.996Z,23.7
2022-11-16T08:39:08.922Z,23.7
2022-11-16T08:40:11.398Z,23.7
2022-11-16T08:41:13.301Z,23.7
2022-11-16T08:42:14.965Z,23.7
2022-11-16T08:43:17.171Z,23.7
2022-11-16T08:44:20.337Z,23.7
2022-11-16T08:45:22.931Z,23.7
2022-11-16T08:46:24.848Z,23.7
2022-11-16T08:47:27.347Z,23.7
2022-11-16T08:48:29.265Z,23.7
2022-11-16T08:49:31.202Z,23.7
2022-11-16T08:51:38.672Z,23.7
2022-11-16T08:52:41.352Z,23.7
2022-11-16T08:53:44.089Z,23.6
2022-11-16T08:54:46.310Z,23.7
2022-11-16T08:55:48.248Z,23.7
2022-11-16T08:56:50.446Z,23.7
2022-11-16T08:57:52.698Z,23.7
2022-11-16T08:59:59.900Z,23.7
2022-11-16T09:01:02.376Z,23.7
2022-11-16T09:02:04.505Z,23.7
2022-11-16T09:03:07.158Z,23.7
2022-11-16T09:04:09.054Z,23.7
2022-11-16T09:05:11.532Z,23.7
2022-11-16T09:06:14.057Z,23.6
2022-11-16T09:07:16.684Z,23.6
2022-11-16T09:08:19.679Z,23.7
2022-11-16T09:09:22.425Z,23.6
2022-11-16T09:10:24.791Z,23.6
2022-11-16T09:11:26.770Z,23.6
2022-11-16T09:12:28.966Z,23.6
2022-11-16T09:13:31.165Z,23.6
2022-11-16T09:14:32.806Z,23.6
2022-11-16T09:15:35.021Z,23.6
2022-11-16T09:16:37.523Z,23.6
2022-11-16T09:17:40.011Z,23.6
2022-11-16T09:18:42.511Z,23.6
2022-11-16T09:19:44.990Z,23.6
2022-11-16T09:20:47.193Z,23.6
2022-11-16T09:21:49.419Z,23.6
2022-11-16T09:22:51.973Z,23.6
2022-11-16T09:23:54.557Z,23.6
2022-11-16T09:24:56.905Z,23.6
2022-11-16T09:25:59.132Z,23.6
2022-11-16T09:27:01.350Z,23.6
2022-11-16T09:28:03.906Z,23.6
2022-11-16T09:29:06.108Z,23.6
2022-11-16T09:30:08.318Z,23.6
2022-11-16T09:31:10.867Z,23.6
2022-11-16T09:32:12.839Z,23.6
2022-11-16T09:33:15.043Z,23.6
2022-11-16T09:34:17.524Z,23.6
2022-11-16T09:35:19.749Z,23.6
2022-11-16T09:36:22.280Z,23.6
2022-11-16T09:37:24.754Z,23.6
2022-11-16T09:39:33.424Z,23.6
2022-11-16T09:40:35.791Z,23.6
2022-11-16T09:41:38.296Z,23.6
2022-11-16T09:42:40.509Z,23.6
2022-11-16T09:44:47.732Z,23.6
2022-11-16T09:45:50.212Z,23.6
2022-11-16T09:46:52.434Z,23.6
2022-11-16T09:47:54.936Z,23.6
2022-11-16T09:48:57.133Z,23.6
2022-11-16T09:51:04.071Z,23.6
2022-11-16T09:52:06.099Z,23.6
2022-11-16T09:53:08.069Z,23.6
2022-11-16T09:54:10.556Z,23.6
2022-11-16T09:57:23.161Z,23.6
2022-11-16T09:58:25.883Z,23.6
2022-11-16T09:59:28.419Z,23.6
2022-11-16T10:00:30.886Z,23.6
2022-11-16T10:01:33.369Z,23.6
2022-11-16T10:02:35.600Z,23.6
2022-11-16T10:03:38.324Z,23.6
2022-11-16T10:04:40.535Z,23.6
2022-11-16T10:05:42.738Z,23.6
2022-11-16T10:06:44.649Z,23.6
2022-11-16T10:07:46.859Z,23.6
2022-11-16T10:08:49.068Z,23.6
2022-11-16T10:09:51.280Z,23.6
2022-11-16T10:10:53.976Z,23.6
2022-11-16T10:11:56.493Z,23.6
2022-11-16T10:12:59.139Z,23.6
2022-11-16T10:15:06.651Z,23.6
2022-11-16T10:16:08.599Z,23.6
2022-11-16T10:17:10.821Z,23.6
2022-11-16T10:18:12.762Z,23.6
2022-11-16T10:19:14.427Z,23.6
2022-11-16T10:20:17.168Z,23.6
2022-11-16T10:21:19.392Z,23.6
2022-11-16T10:22:21.882Z,23.6
2022-11-16T10:23:24.368Z,23.6
2022-11-16T10:24:26.851Z,23.6
2022-11-16T10:25:29.059Z,23.6
2022-11-16T10:26:31.097Z,23.6
2022-11-16T10:27:33.612Z,23.6
2022-11-16T10:28:36.057Z,23.6
2022-11-16T10:29:38.583Z,23.6
2022-11-16T10:30:41.088Z,23.6
2022-11-16T10:31:43.319Z,23.6
2022-11-16T10:32:45.821Z,23.6
2022-11-16T10:33:48.052Z,23.6
2022-11-16T10:34:50.265Z,23.6
2022-11-16T10:35:52.186Z,23.6
2022-11-16T10:36:54.669Z,23.6
2022-11-16T10:37:56.876Z,23.6
2022-11-16T10:38:59.082Z,23.6
2022-11-16T10:40:01.289Z,23.6
2022-11-16T10:41:03.775Z,23.6
2022-11-16T10:43:11.066Z,23.6
2022-11-16T10:44:13.676Z,23.6
2022-11-16T10:45:16.312Z,23.6
2022-11-16T10:46:18.542Z,23.6
2022-11-16T10:47:21.092Z,23.6
2022-11-16T10:48:23.034Z,23.6
2022-11-16T10:49:25.309Z,23.6
2022-11-16T10:50:27.527Z,23.6
2022-11-16T10:51:29.463Z,23.6
2022-11-16T10:52:31.671Z,23.6
2022-11-16T10:53:35.536Z,23.6
2022-11-16T10:55:43.818Z,23.6
2022-11-16T10:56:46.298Z,23.6
2022-11-16T10:57:48.652Z,23.6
2022-11-16T10:58:50.847Z,23.6
2022-11-16T10:59:53.465Z,23.6
2022-11-16T11:00:55.880Z,23.6
2022-11-16T11:01:58.246Z,23.6
2022-11-16T11:03:00.735Z,23.6
2022-11-16T11:04:02.657Z,23.6
2022-11-16T11:05:04.860Z,23.6
2022-11-16T11:06:06.790Z,23.6
2022-11-16T11:07:09.352Z,23.6
2022-11-16T11:08:11.692Z,23.6
2022-11-16T11:09:13.909Z,23.6
2022-11-16T11:10:16.125Z,23.6
2022-11-16T11:11:18.162Z,23.6
2022-11-16T11:12:20.375Z,23.6
2022-11-16T11:13:22.864Z,23.6
2022-11-16T11:14:25.102Z,23.6
2022-11-16T11:15:28.000Z,23.6
2022-11-16T11:16:30.704Z,23.6
2022-11-16T11:17:33.179Z,23.6
2022-11-16T11:18:35.650Z,23.6
2022-11-16T11:19:37.847Z,23.6
2022-11-16T11:21:45.057Z,23.6
2022-11-16T11:22:47.525Z,23.6
2022-11-16T11:23:49.711Z,23.6
2022-11-16T11:24:52.235Z,23.6
2022-11-16T11:25:54.172Z,23.6
2022-11-16T11:26:56.644Z,23.6
2022-11-16T11:27:58.867Z,23.6
2022-11-16T11:29:01.417Z,23.6
2022-11-16T11:30:03.346Z,23.6
2022-11-16T11:31:05.898Z,23.6
2022-11-16T11:32:08.629Z,23.6
2022-11-16T11:33:11.109Z,23.6
2022-11-16T11:34:13.596Z,23.6
2022-11-16T11:35:15.558Z,23.6
2022-11-16T11:36:17.471Z,23.6
2022-11-16T11:37:19.742Z,23.6
2022-11-16T11:38:21.693Z,23.6
2022-11-16T11:39:23.981Z,23.6
2022-11-16T11:40:26.173Z,23.6
2022-11-16T11:41:28.084Z,23.6
2022-11-16T11:42:30.332Z,23.6
2022-11-16T11:43:33.954Z,23.6
2022-11-16T11:44:37.708Z,23.6
2022-11-16T11:45:39.911Z,23.6
2022-11-16T11:48:52.541Z,23.6
2022-11-16T11:49:54.598Z,23.6
2022-11-16T11:50:57.091Z,23.6
2022-11-16T11:51:59.302Z,23.6
2022-11-16T11:53:01.498Z,23.6
2022-11-16T11:54:03.719Z,23.6
2022-11-16T11:55:05.923Z,23.6
2022-11-16T11:56:08.398Z,23.6
2022-11-16T11:57:10.613Z,23.6
2022-11-16T11:58:13.136Z,23.6
2022-11-16T11:59:15.636Z,23.6
2022-11-16T12:00:18.141Z,23.6
2022-11-16T12:02:25.339Z,23.6
2022-11-16T12:03:27.266Z,23.6
2022-11-16T12:04:29.912Z,23.6
2022-11-16T12:05:32.430Z,23.6
2022-11-16T12:06:34.416Z,23.6
2022-11-16T12:07:41.262Z,23.6
2022-11-16T12:08:43.513Z,23.6
2022-11-16T12:09:45.735Z,23.6
2022-11-16T12:10:47.674Z,23.6
2022-11-16T12:11:49.890Z,23.6
2022-11-16T12:12:52.378Z,23.6
2022-11-16T12:13:54.621Z,23.6
2022-11-16T12:14:56.881Z,23.6
2022-11-16T12:15:58.956Z,23.6
2022-11-16T12:17:01.443Z,23.6
2022-11-16T12:18:03.952Z,23.6
2022-11-16T12:19:06.156Z,23.6
2022-11-16T12:20:08.906Z,23.6
2022-11-16T12:21:11.432Z,23.6
2022-11-16T12:22:13.655Z,23.6
2022-11-16T12:23:15.914Z,23.6
2022-11-16T12:24:18.407Z,23.6
2022-11-16T12:25:20.051Z,23.6
2022-11-16T12:26:21.707Z,23.6
2022-11-16T12:27:24.092Z,23.6
2022-11-16T12:28:26.605Z,23.6
2022-11-16T12:29:29.083Z,23.6
2022-11-16T12:30:31.556Z,23.6
2022-11-16T12:31:34.200Z,23.6
2022-11-16T12:32:36.734Z,23.6
2022-11-16T12:33:39.843Z,23.6
2022-11-16T12:34:42.350Z,23.6
2022-11-16T12:35:45.076Z,23.6
2022-11-16T12:36:47.637Z,23.6
2022-11-16T12:37:49.851Z,23.6
2022-11-16T12:38:52.344Z,23.6
2022-11-16T12:39:54.812Z,23.6
2022-11-16T12:40:57.296Z,23.6
2022-11-16T12:41:59.773Z,23.6
2022-11-16T12:43:02.291Z,23.6
2022-11-16T12:44:04.784Z,23.6
2022-11-16T12:45:07.013Z,23.6
2022-11-16T12:46:09.509Z,23.6
2022-11-16T12:47:12.014Z,23.6
2022-11-16T12:48:14.062Z,23.6
2022-11-16T12:49:16.544Z,23.6
2022-11-16T12:50:19.017Z,23.6
2022-11-16T12:51:21.095Z,23.6
2022-11-16T12:52:27.890Z,23.6
2022-11-16T12:53:30.376Z,23.6
2022-11-16T12:54:33.751Z,23.6
2022-11-16T12:55:35.953Z,23.6
2022-11-16T12:56:38.479Z,23.6
2022-11-16T12:57:42.689Z,23.6
2022-11-16T12:58:45.209Z,23.6
2022-11-16T12:59:47.440Z,23.6
2022-11-16T13:00:50.189Z,23.6
2022-11-16T13:02:57.960Z,23.6
2022-11-16T13:03:59.868Z,23.6
2022-11-16T13:05:02.079Z,23.6
2022-11-16T13:06:04.552Z,23.6
2022-11-16T13:08:11.990Z,23.6
2022-11-16T13:09:14.612Z,23.6
2022-11-16T13:10:17.099Z,23.6
2022-11-16T13:11:19.574Z,23.6
2022-11-16T13:12:21.497Z,23.6
2022-11-16T13:14:28.973Z,23.6
2022-11-16T13:15:30.900Z,23.6
2022-11-16T13:16:33.122Z,23.6
2022-11-16T13:17:35.313Z,23.6
2022-11-16T13:18:37.899Z,23.6
2022-11-16T13:19:40.372Z,23.6
2022-11-16T13:20:42.565Z,23.6
2022-11-16T13:21:45.049Z,23.6
2022-11-16T13:22:47.538Z,23.6
2022-11-16T13:23:50.150Z,23.6
2022-11-16T13:24:52.768Z,23.6
2022-11-16T13:25:55.012Z,23.6
2022-11-16T13:26:57.494Z,23.6
2022-11-16T13:27:59.973Z,23.6
2022-11-16T13:29:02.180Z,23.6
2022-11-16T13:30:04.655Z,23.6
2022-11-16T13:31:07.135Z,23.6
2022-11-16T13:32:09.332Z,23.6
2022-11-16T13:33:11.541Z,23.6
2022-11-16T13:34:13.870Z,23.6
2022-11-16T13:35:16.083Z,23.6
2022-11-16T13:36:18.291Z,23.6
2022-11-16T13:37:20.844Z,23.6
2022-11-16T13:38:23.316Z,23.6
2022-11-16T13:39:25.940Z,23.6
2022-11-16T13:40:28.477Z,23.6
2022-11-16T13:41:30.382Z,23.6
2022-11-16T13:42:32.623Z,23.6
2022-11-16T13:43:35.148Z,23.6
2022-11-16T13:44:37.082Z,23.6
2022-11-16T13:45:39.562Z,23.6
2022-11-16T13:47:47.029Z,23.6
2022-11-16T13:48:49.232Z,23.6
2022-11-16T13:49:51.755Z,23.6
2022-11-16T13:50:53.680Z,23.6
2022-11-16T13:51:55.389Z,23.6
2022-11-16T13:55:07.888Z,23.6
2022-11-16T13:56:09.964Z,23.6
2022-11-16T13:57:12.440Z,23.6
2022-11-16T13:58:14.828Z,23.6
2022-11-16T13:59:17.043Z,23.6
2022-11-16T14:00:19.271Z,23.6
2022-11-16T14:01:22.005Z,23.6
2022-11-16T14:02:25.709Z,23.6
2022-11-16T14:03:28.186Z,23.6
2022-11-16T14:04:30.159Z,23.6
2022-11-16T14:05:32.828Z,23.6
2022-11-16T14:06:35.029Z,23.6
2022-11-16T14:07:36.999Z,23.6
2022-11-16T14:08:39.493Z,23.6
2022-11-16T14:09:42.022Z,23.6
2022-11-16T14:10:44.403Z,23.6
2022-11-16T14:11:47.127Z,23.6
2022-11-16T14:12:49.601Z,23.6
2022-11-16T14:13:52.079Z,23.6
2022-11-16T14:15:00.874Z,23.6
2022-11-16T14:16:02.476Z,23.6
2022-11-16T14:17:04.384Z,23.6
2022-11-16T14:18:06.602Z,23.6
2022-11-16T14:19:08.844Z,23.6
2022-11-16T14:20:11.089Z,23.6
2022-11-16T14:21:13.108Z,23.6
2022-11-16T14:22:15.314Z,23.6
2022-11-16T14:23:17.784Z,23.6
2022-11-16T14:24:19.743Z,23.6